KCID/CID METAR and TAF weather

Enter ICAO airport designator
Station Type Date Time Source
KCID METAR 2020/09/21 09:52 UTC NOAA

KCID 210952Z 18006KT 10SM CLR 10/06 A3028 RMK AO2 SLP254 T01000061


Station Type Date Time Source
KCID Decoded METAR 2020/09/21 09:52 UTC NOAA

CEDAR RAPIDS AIRPORT, IA, United States (KCID) 41-53N 91-43W
Sep 21, 2020 - 05:52 AM EDT / 2020.09.21 0952 UTC
Wind: from the S (180 degrees) at 7 MPH (6 KT):0
Visibility: 10 mile(s):0
Sky conditions: clear
Temperature: 50.0 F (10.0 C)
Dew Point: 43.0 F (6.1 C)
Relative Humidity: 76%
Pressure (altimeter): 30.28 in. Hg (1025 hPa)
ob: KCID 210952Z 18006KT 10SM CLR 10/06 A3028 RMK AO2 SLP254 T01000061
cycle: 10

Station Type Date Time Source
KCID TAF 2020/09/21 06:22 UTC NOAA

TAF KCID 210520Z 2106/2206 15006KT P6SM SCT150

Example: see airport list